Terminal Aerodrome Forecast
Issued by NWS Mt. Holly, NJ

Home | Current Version | Previous Version | Text Only | Print | Product List | Glossary On
Versions: 1 2 3 4 5 6 7 8 9 10 11 12 13
748
FTUS41 KPHI 080520
TAFRDG
TAF
KRDG 080520Z 0806/0906 01005KT P6SM BKN200
     FM081200 03006KT P6SM SCT020 OVC150
     FM082200 10006KT P6SM OVC020
     FM090300 10007KT 4SM -SN OVC009=

USA.gov is the U.S. government's official web portal to all federal, state and local government web resources and services.